sensor_id;sensor_type;location;lat;lon;timestamp;temperature;humidity
25963;DHT22;13760;52.588;13.406;2023-06-22T00:00:19;20.10;99.90
25963;DHT22;13760;52.588;13.406;2023-06-22T00:02:45;20.10;99.90
25963;DHT22;13760;52.588;13.406;2023-06-22T00:05:10;20.10;99.90
25963;DHT22;13760;52.588;13.406;2023-06-22T00:07:36;20.00;99.90
25963;DHT22;13760;52.588;13.406;2023-06-22T00:10:01;20.00;99.90
25963;DHT22;13760;52.588;13.406;2023-06-22T00:12:27;20.00;99.90
25963;DHT22;13760;52.588;13.406;2023-06-22T00:14:52;20.00;99.90
25963;DHT22;13760;52.588;13.406;2023-06-22T00:17:18;19.90;99.90
25963;DHT22;13760;52.588;13.406;2023-06-22T00:19:47;19.80;99.90
25963;DHT22;13760;52.588;13.406;2023-06-22T00:22:12;19.80;99.90
25963;DHT22;13760;52.588;13.406;2023-06-22T00:24:37;19.80;99.90
25963;DHT22;13760;52.588;13.406;2023-06-22T00:27:03;19.80;99.90
25963;DHT22;13760;52.588;13.406;2023-06-22T00:29:30;19.80;99.90
25963;DHT22;13760;52.588;13.406;2023-06-22T00:31:56;19.80;99.90
25963;DHT22;13760;52.588;13.406;2023-06-22T00:34:21;19.70;99.90
25963;DHT22;13760;52.588;13.406;2023-06-22T00:36:46;19.80;99.90
25963;DHT22;13760;52.588;13.406;2023-06-22T00:39:13;19.70;99.90
25963;DHT22;13760;52.588;13.406;2023-06-22T00:41:38;19.70;99.90
25963;DHT22;13760;52.588;13.406;2023-06-22T00:44:04;19.70;99.90
25963;DHT22;13760;52.588;13.406;2023-06-22T00:46:29;19.60;99.90
25963;DHT22;13760;52.588;13.406;2023-06-22T00:48:55;19.50;99.90
25963;DHT22;13760;52.588;13.406;2023-06-22T00:51:22;19.50;99.90
25963;DHT22;13760;52.588;13.406;2023-06-22T00:53:50;19.50;99.90
25963;DHT22;13760;52.588;13.406;2023-06-22T00:56:17;19.40;99.90
25963;DHT22;13760;52.588;13.406;2023-06-22T00:58:45;19.40;99.90
25963;DHT22;13760;52.588;13.406;2023-06-22T01:01:12;19.30;99.90
25963;DHT22;13760;52.588;13.406;2023-06-22T01:03:39;19.30;99.90
25963;DHT22;13760;52.588;13.406;2023-06-22T01:06:12;19.20;99.90
25963;DHT22;13760;52.588;13.406;2023-06-22T01:08:51;19.10;99.90
25963;DHT22;13760;52.588;13.406;2023-06-22T01:11:32;19.10;99.90
25963;DHT22;13760;52.588;13.406;2023-06-22T01:14:15;19.00;99.90
25963;DHT22;13760;52.588;13.406;2023-06-22T01:16:45;19.00;99.90
25963;DHT22;13760;52.588;13.406;2023-06-22T01:19:38;19.00;99.90
25963;DHT22;13760;52.588;13.406;2023-06-22T01:22:07;18.90;99.90
25963;DHT22;13760;52.588;13.406;2023-06-22T01:30:16;18.80;99.90
25963;DHT22;13760;52.588;13.406;2023-06-22T01:32:44;18.80;99.90
25963;DHT22;13760;52.588;13.406;2023-06-22T01:35:10;18.70;99.90
25963;DHT22;13760;52.588;13.406;2023-06-22T01:37:37;18.70;99.90
25963;DHT22;13760;52.588;13.406;2023-06-22T01:40:04;18.70;99.90
25963;DHT22;13760;52.588;13.406;2023-06-22T01:42:31;18.70;99.90
25963;DHT22;13760;52.588;13.406;2023-06-22T01:44:58;18.70;99.90
25963;DHT22;13760;52.588;13.406;2023-06-22T01:47:25;18.70;99.90
25963;DHT22;13760;52.588;13.406;2023-06-22T01:49:51;18.60;99.90
25963;DHT22;13760;52.588;13.406;2023-06-22T01:52:17;18.60;99.90
25963;DHT22;13760;52.588;13.406;2023-06-22T01:54:43;18.70;99.90
25963;DHT22;13760;52.588;13.406;2023-06-22T01:57:08;18.60;99.90
25963;DHT22;13760;52.588;13.406;2023-06-22T01:59:43;18.60;99.90
25963;DHT22;13760;52.588;13.406;2023-06-22T02:02:15;18.50;99.90
25963;DHT22;13760;52.588;13.406;2023-06-22T02:04:44;18.50;99.90
25963;DHT22;13760;52.588;13.406;2023-06-22T02:07:14;18.50;99.90
25963;DHT22;13760;52.588;13.406;2023-06-22T02:09:44;18.50;99.90
25963;DHT22;13760;52.588;13.406;2023-06-22T02:12:11;18.50;99.90
25963;DHT22;13760;52.588;13.406;2023-06-22T02:14:38;18.50;99.90
25963;DHT22;13760;52.588;13.406;2023-06-22T02:17:04;18.50;99.90
25963;DHT22;13760;52.588;13.406;2023-06-22T02:19:36;18.50;99.90
25963;DHT22;13760;52.588;13.406;2023-06-22T02:22:03;18.50;99.90
25963;DHT22;13760;52.588;13.406;2023-06-22T02:24:28;18.50;99.90
25963;DHT22;13760;52.588;13.406;2023-06-22T02:26:57;18.50;99.90
25963;DHT22;13760;52.588;13.406;2023-06-22T02:29:23;18.50;99.90
25963;DHT22;13760;52.588;13.406;2023-06-22T02:31:49;18.40;99.90
25963;DHT22;13760;52.588;13.406;2023-06-22T02:34:14;18.40;99.90
25963;DHT22;13760;52.588;13.406;2023-06-22T02:36:44;18.40;99.90
25963;DHT22;13760;52.588;13.406;2023-06-22T02:39:25;18.40;99.90
25963;DHT22;13760;52.588;13.406;2023-06-22T02:41:52;18.40;99.90
25963;DHT22;13760;52.588;13.406;2023-06-22T02:44:18;18.40;99.90
25963;DHT22;13760;52.588;13.406;2023-06-22T02:46:45;18.40;99.90
25963;DHT22;13760;52.588;13.406;2023-06-22T02:49:11;18.50;99.90
25963;DHT22;13760;52.588;13.406;2023-06-22T02:51:38;18.50;99.90
25963;DHT22;13760;52.588;13.406;2023-06-22T02:54:08;18.50;99.90
25963;DHT22;13760;52.588;13.406;2023-06-22T02:56:33;18.50;99.90
25963;DHT22;13760;52.588;13.406;2023-06-22T02:58:59;18.50;99.90
25963;DHT22;13760;52.588;13.406;2023-06-22T03:01:30;18.60;99.90
25963;DHT22;13760;52.588;13.406;2023-06-22T03:03:58;18.70;99.90
25963;DHT22;13760;52.588;13.406;2023-06-22T03:06:24;18.70;99.90
25963;DHT22;13760;52.588;13.406;2023-06-22T03:08:59;18.80;99.90
25963;DHT22;13760;52.588;13.406;2023-06-22T03:11:25;18.80;99.90
25963;DHT22;13760;52.588;13.406;2023-06-22T03:13:50;18.80;99.90
25963;DHT22;13760;52.588;13.406;2023-06-22T03:16:17;18.80;99.90
25963;DHT22;13760;52.588;13.406;2023-06-22T03:18:43;18.80;99.90
25963;DHT22;13760;52.588;13.406;2023-06-22T03:21:09;18.80;99.90
25963;DHT22;13760;52.588;13.406;2023-06-22T03:23:34;18.80;99.90
25963;DHT22;13760;52.588;13.406;2023-06-22T03:25:59;18.80;99.90
25963;DHT22;13760;52.588;13.406;2023-06-22T03:28:25;18.80;99.90
25963;DHT22;13760;52.588;13.406;2023-06-22T03:30:50;18.80;99.90
25963;DHT22;13760;52.588;13.406;2023-06-22T03:33:16;18.80;99.90
25963;DHT22;13760;52.588;13.406;2023-06-22T03:35:41;18.80;99.90
25963;DHT22;13760;52.588;13.406;2023-06-22T03:38:07;18.80;99.90
25963;DHT22;13760;52.588;13.406;2023-06-22T03:40:33;18.70;99.90
25963;DHT22;13760;52.588;13.406;2023-06-22T03:42:58;18.80;99.90
25963;DHT22;13760;52.588;13.406;2023-06-22T03:45:24;18.70;99.90
25963;DHT22;13760;52.588;13.406;2023-06-22T03:47:49;18.80;99.90
25963;DHT22;13760;52.588;13.406;2023-06-22T03:50:15;18.80;99.90
25963;DHT22;13760;52.588;13.406;2023-06-22T03:52:40;18.80;99.90
25963;DHT22;13760;52.588;13.406;2023-06-22T03:55:07;18.90;99.90
25963;DHT22;13760;52.588;13.406;2023-06-22T03:57:33;18.90;99.90
25963;DHT22;13760;52.588;13.406;2023-06-22T04:00:00;18.90;99.90
25963;DHT22;13760;52.588;13.406;2023-06-22T04:02:26;18.90;99.90
25963;DHT22;13760;52.588;13.406;2023-06-22T04:04:51;18.90;99.90
25963;DHT22;13760;52.588;13.406;2023-06-22T04:07:17;18.90;99.90
25963;DHT22;13760;52.588;13.406;2023-06-22T04:09:43;19.00;99.90
25963;DHT22;13760;52.588;13.406;2023-06-22T04:12:09;19.00;99.90
25963;DHT22;13760;52.588;13.406;2023-06-22T04:14:34;19.00;99.90
25963;DHT22;13760;52.588;13.406;2023-06-22T04:17:01;19.10;99.90
25963;DHT22;13760;52.588;13.406;2023-06-22T04:19:26;19.10;99.90
25963;DHT22;13760;52.588;13.406;2023-06-22T04:21:52;19.20;99.90
25963;DHT22;13760;52.588;13.406;2023-06-22T04:24:18;19.20;99.90
25963;DHT22;13760;52.588;13.406;2023-06-22T04:26:43;19.20;99.90
25963;DHT22;13760;52.588;13.406;2023-06-22T04:29:11;19.30;99.90
25963;DHT22;13760;52.588;13.406;2023-06-22T04:31:37;19.40;99.90
25963;DHT22;13760;52.588;13.406;2023-06-22T04:34:03;19.40;99.90
25963;DHT22;13760;52.588;13.406;2023-06-22T04:36:37;19.50;99.90
25963;DHT22;13760;52.588;13.406;2023-06-22T04:39:08;19.50;99.90
25963;DHT22;13760;52.588;13.406;2023-06-22T04:41:38;19.60;99.90
25963;DHT22;13760;52.588;13.406;2023-06-22T04:44:10;19.60;99.90
25963;DHT22;13760;52.588;13.406;2023-06-22T04:46:36;19.70;99.90
25963;DHT22;13760;52.588;13.406;2023-06-22T04:49:09;19.70;99.90
25963;DHT22;13760;52.588;13.406;2023-06-22T04:51:42;19.80;99.90
25963;DHT22;13760;52.588;13.406;2023-06-22T04:54:09;19.80;99.90
25963;DHT22;13760;52.588;13.406;2023-06-22T04:56:35;19.90;99.90
25963;DHT22;13760;52.588;13.406;2023-06-22T04:59:01;19.90;99.90
25963;DHT22;13760;52.588;13.406;2023-06-22T05:01:26;20.00;99.90
25963;DHT22;13760;52.588;13.406;2023-06-22T05:03:52;20.00;99.90
25963;DHT22;13760;52.588;13.406;2023-06-22T05:06:24;20.10;99.90
25963;DHT22;13760;52.588;13.406;2023-06-22T05:08:53;20.20;99.90
25963;DHT22;13760;52.588;13.406;2023-06-22T05:11:18;20.20;99.90
25963;DHT22;13760;52.588;13.406;2023-06-22T05:13:44;20.30;99.90
25963;DHT22;13760;52.588;13.406;2023-06-22T05:16:10;20.30;99.90
25963;DHT22;13760;52.588;13.406;2023-06-22T05:18:37;20.30;99.90
25963;DHT22;13760;52.588;13.406;2023-06-22T05:21:07;20.40;99.90
25963;DHT22;13760;52.588;13.406;2023-06-22T05:23:34;20.50;99.90
25963;DHT22;13760;52.588;13.406;2023-06-22T05:26:00;20.60;99.90
25963;DHT22;13760;52.588;13.406;2023-06-22T05:28:26;20.70;99.90
25963;DHT22;13760;52.588;13.406;2023-06-22T05:30:51;20.80;99.90
25963;DHT22;13760;52.588;13.406;2023-06-22T05:33:17;20.80;99.90
25963;DHT22;13760;52.588;13.406;2023-06-22T05:35:43;20.90;99.90
25963;DHT22;13760;52.588;13.406;2023-06-22T05:38:08;20.90;99.90
25963;DHT22;13760;52.588;13.406;2023-06-22T05:40:39;21.00;99.90
25963;DHT22;13760;52.588;13.406;2023-06-22T05:43:10;21.00;99.90
25963;DHT22;13760;52.588;13.406;2023-06-22T05:45:35;21.10;99.90
25963;DHT22;13760;52.588;13.406;2023-06-22T05:48:01;21.20;99.90
25963;DHT22;13760;52.588;13.406;2023-06-22T05:50:27;21.30;99.90
25963;DHT22;13760;52.588;13.406;2023-06-22T05:52:52;21.30;99.90
25963;DHT22;13760;52.588;13.406;2023-06-22T05:55:18;21.30;99.90
25963;DHT22;13760;52.588;13.406;2023-06-22T05:57:44;21.40;99.90
25963;DHT22;13760;52.588;13.406;2023-06-22T06:00:10;21.40;99.90
25963;DHT22;13760;52.588;13.406;2023-06-22T06:02:36;21.50;99.90
25963;DHT22;13760;52.588;13.406;2023-06-22T06:05:02;21.50;99.90
25963;DHT22;13760;52.588;13.406;2023-06-22T06:07:28;21.60;99.90
25963;DHT22;13760;52.588;13.406;2023-06-22T06:09:53;21.70;99.90
25963;DHT22;13760;52.588;13.406;2023-06-22T06:12:19;21.70;99.90
25963;DHT22;13760;52.588;13.406;2023-06-22T06:14:44;21.80;99.90
25963;DHT22;13760;52.588;13.406;2023-06-22T06:17:10;22.00;99.90
25963;DHT22;13760;52.588;13.406;2023-06-22T06:19:35;22.00;99.90
25963;DHT22;13760;52.588;13.406;2023-06-22T06:22:01;22.00;99.90
25963;DHT22;13760;52.588;13.406;2023-06-22T06:24:26;22.10;99.90
25963;DHT22;13760;52.588;13.406;2023-06-22T06:26:52;22.10;99.90
25963;DHT22;13760;52.588;13.406;2023-06-22T06:29:17;22.20;99.90
25963;DHT22;13760;52.588;13.406;2023-06-22T06:31:43;22.30;99.90
25963;DHT22;13760;52.588;13.406;2023-06-22T06:34:09;22.30;99.90
25963;DHT22;13760;52.588;13.406;2023-06-22T06:36:34;22.40;99.90
25963;DHT22;13760;52.588;13.406;2023-06-22T06:39:00;22.50;99.90
25963;DHT22;13760;52.588;13.406;2023-06-22T06:41:25;22.60;99.90
25963;DHT22;13760;52.588;13.406;2023-06-22T06:43:51;22.70;99.90
25963;DHT22;13760;52.588;13.406;2023-06-22T06:46:17;22.70;99.90
25963;DHT22;13760;52.588;13.406;2023-06-22T06:48:44;22.90;99.90
25963;DHT22;13760;52.588;13.406;2023-06-22T06:51:09;23.00;99.90
25963;DHT22;13760;52.588;13.406;2023-06-22T06:53:38;23.10;99.90
25963;DHT22;13760;52.588;13.406;2023-06-22T06:56:07;23.30;99.90
25963;DHT22;13760;52.588;13.406;2023-06-22T06:58:35;23.40;99.90
25963;DHT22;13760;52.588;13.406;2023-06-22T07:01:02;23.50;99.90
25963;DHT22;13760;52.588;13.406;2023-06-22T07:03:28;23.70;99.90
25963;DHT22;13760;52.588;13.406;2023-06-22T07:05:54;23.80;99.90
25963;DHT22;13760;52.588;13.406;2023-06-22T07:08:19;24.00;99.90
25963;DHT22;13760;52.588;13.406;2023-06-22T07:10:45;24.00;99.90
25963;DHT22;13760;52.588;13.406;2023-06-22T07:13:10;24.10;99.90
25963;DHT22;13760;52.588;13.406;2023-06-22T07:15:36;24.20;99.90
25963;DHT22;13760;52.588;13.406;2023-06-22T07:18:01;24.40;99.90
25963;DHT22;13760;52.588;13.406;2023-06-22T07:20:27;24.50;99.90
25963;DHT22;13760;52.588;13.406;2023-06-22T07:22:52;24.50;99.90
25963;DHT22;13760;52.588;13.406;2023-06-22T07:25:18;24.50;99.90
25963;DHT22;13760;52.588;13.406;2023-06-22T07:28:07;24.50;99.90
25963;DHT22;13760;52.588;13.406;2023-06-22T07:30:33;24.50;99.90
25963;DHT22;13760;52.588;13.406;2023-06-22T07:32:59;24.40;99.90
25963;DHT22;13760;52.588;13.406;2023-06-22T07:35:29;24.40;99.90
25963;DHT22;13760;52.588;13.406;2023-06-22T07:37:55;24.40;99.90
25963;DHT22;13760;52.588;13.406;2023-06-22T07:40:20;24.40;99.90
25963;DHT22;13760;52.588;13.406;2023-06-22T07:42:46;24.40;99.90
25963;DHT22;13760;52.588;13.406;2023-06-22T07:45:13;24.40;99.90
25963;DHT22;13760;52.588;13.406;2023-06-22T07:47:42;24.50;99.90
25963;DHT22;13760;52.588;13.406;2023-06-22T07:50:08;24.50;99.90
25963;DHT22;13760;52.588;13.406;2023-06-22T07:52:34;24.50;99.90
25963;DHT22;13760;52.588;13.406;2023-06-22T07:54:59;24.60;99.90
25963;DHT22;13760;52.588;13.406;2023-06-22T07:57:25;24.60;99.90
25963;DHT22;13760;52.588;13.406;2023-06-22T08:00:08;24.60;99.90
25963;DHT22;13760;52.588;13.406;2023-06-22T08:02:42;24.70;99.90
25963;DHT22;13760;52.588;13.406;2023-06-22T08:05:09;24.70;99.90
25963;DHT22;13760;52.588;13.406;2023-06-22T08:07:35;24.80;99.90
25963;DHT22;13760;52.588;13.406;2023-06-22T08:10:03;24.90;99.90
25963;DHT22;13760;52.588;13.406;2023-06-22T08:12:29;24.90;99.90
25963;DHT22;13760;52.588;13.406;2023-06-22T08:14:54;24.90;99.90
25963;DHT22;13760;52.588;13.406;2023-06-22T08:17:20;25.00;99.90
25963;DHT22;13760;52.588;13.406;2023-06-22T08:19:45;25.00;99.90
25963;DHT22;13760;52.588;13.406;2023-06-22T08:22:11;25.10;99.90
25963;DHT22;13760;52.588;13.406;2023-06-22T08:24:36;25.10;99.90
25963;DHT22;13760;52.588;13.406;2023-06-22T08:27:02;25.10;99.90
25963;DHT22;13760;52.588;13.406;2023-06-22T08:29:27;25.10;99.90
25963;DHT22;13760;52.588;13.406;2023-06-22T08:31:53;25.10;99.90
25963;DHT22;13760;52.588;13.406;2023-06-22T08:34:18;25.00;99.90
25963;DHT22;13760;52.588;13.406;2023-06-22T08:36:47;25.00;99.90
25963;DHT22;13760;52.588;13.406;2023-06-22T08:39:18;25.00;99.90
25963;DHT22;13760;52.588;13.406;2023-06-22T08:41:44;25.00;99.90
25963;DHT22;13760;52.588;13.406;2023-06-22T08:44:10;25.00;99.90
25963;DHT22;13760;52.588;13.406;2023-06-22T08:46:35;25.00;99.90
25963;DHT22;13760;52.588;13.406;2023-06-22T08:49:01;25.00;99.60
25963;DHT22;13760;52.588;13.406;2023-06-22T08:51:27;25.00;99.70
25963;DHT22;13760;52.588;13.406;2023-06-22T08:53:53;25.00;99.70
25963;DHT22;13760;52.588;13.406;2023-06-22T08:56:19;25.00;99.90
25963;DHT22;13760;52.588;13.406;2023-06-22T08:58:44;25.00;99.90
25963;DHT22;13760;52.588;13.406;2023-06-22T09:01:10;25.00;99.40
25963;DHT22;13760;52.588;13.406;2023-06-22T09:03:35;25.00;99.70
25963;DHT22;13760;52.588;13.406;2023-06-22T09:06:03;25.00;99.80
25963;DHT22;13760;52.588;13.406;2023-06-22T09:08:28;25.00;99.90
25963;DHT22;13760;52.588;13.406;2023-06-22T09:10:54;25.00;99.90
25963;DHT22;13760;52.588;13.406;2023-06-22T09:13:19;25.00;99.90
25963;DHT22;13760;52.588;13.406;2023-06-22T09:15:45;25.10;99.90
25963;DHT22;13760;52.588;13.406;2023-06-22T09:18:11;25.30;99.90
25963;DHT22;13760;52.588;13.406;2023-06-22T09:20:37;25.40;99.70
25963;DHT22;13760;52.588;13.406;2023-06-22T09:23:02;25.50;98.90
25963;DHT22;13760;52.588;13.406;2023-06-22T09:25:28;25.60;98.70
25963;DHT22;13760;52.588;13.406;2023-06-22T09:27:53;25.70;98.50
25963;DHT22;13760;52.588;13.406;2023-06-22T09:30:19;25.70;98.10
25963;DHT22;13760;52.588;13.406;2023-06-22T09:32:44;25.80;98.00
25963;DHT22;13760;52.588;13.406;2023-06-22T09:35:10;25.90;97.20
25963;DHT22;13760;52.588;13.406;2023-06-22T09:37:38;25.90;97.30
25963;DHT22;13760;52.588;13.406;2023-06-22T09:40:04;26.00;97.70
25963;DHT22;13760;52.588;13.406;2023-06-22T09:42:38;26.10;97.50
25963;DHT22;13760;52.588;13.406;2023-06-22T09:45:04;26.20;98.00
25963;DHT22;13760;52.588;13.406;2023-06-22T09:47:30;26.40;98.10
25963;DHT22;13760;52.588;13.406;2023-06-22T09:49:55;26.60;97.50
25963;DHT22;13760;52.588;13.406;2023-06-22T09:52:21;26.70;95.80
25963;DHT22;13760;52.588;13.406;2023-06-22T09:54:47;26.70;95.80
25963;DHT22;13760;52.588;13.406;2023-06-22T09:57:13;26.80;95.40
25963;DHT22;13760;52.588;13.406;2023-06-22T09:59:38;26.80;94.90
25963;DHT22;13760;52.588;13.406;2023-06-22T10:02:06;26.90;95.00
25963;DHT22;13760;52.588;13.406;2023-06-22T10:04:31;27.00;96.10
25963;DHT22;13760;52.588;13.406;2023-06-22T10:06:57;27.10;95.60
25963;DHT22;13760;52.588;13.406;2023-06-22T10:09:22;27.20;94.90
25963;DHT22;13760;52.588;13.406;2023-06-22T10:11:48;27.30;95.00
25963;DHT22;13760;52.588;13.406;2023-06-22T10:14:14;27.40;94.80
25963;DHT22;13760;52.588;13.406;2023-06-22T10:16:39;27.60;94.20
25963;DHT22;13760;52.588;13.406;2023-06-22T10:19:06;27.70;94.40
25963;DHT22;13760;52.588;13.406;2023-06-22T10:21:32;27.80;93.10
25963;DHT22;13760;52.588;13.406;2023-06-22T10:23:58;27.80;92.30
25963;DHT22;13760;52.588;13.406;2023-06-22T10:26:24;27.90;92.30
25963;DHT22;13760;52.588;13.406;2023-06-22T10:28:50;27.90;92.40
25963;DHT22;13760;52.588;13.406;2023-06-22T10:31:16;28.00;91.90
25963;DHT22;13760;52.588;13.406;2023-06-22T10:33:42;28.00;91.00
25963;DHT22;13760;52.588;13.406;2023-06-22T10:36:10;28.00;90.40
25963;DHT22;13760;52.588;13.406;2023-06-22T10:38:35;28.00;90.70
25963;DHT22;13760;52.588;13.406;2023-06-22T10:41:01;28.10;88.20
25963;DHT22;13760;52.588;13.406;2023-06-22T10:43:27;28.00;90.20
25963;DHT22;13760;52.588;13.406;2023-06-22T10:45:53;28.00;90.30
25963;DHT22;13760;52.588;13.406;2023-06-22T10:48:18;28.00;89.70
25963;DHT22;13760;52.588;13.406;2023-06-22T10:50:44;27.80;87.50
25963;DHT22;13760;52.588;13.406;2023-06-22T10:53:09;27.80;88.90
25963;DHT22;13760;52.588;13.406;2023-06-22T10:55:35;27.80;88.50
25963;DHT22;13760;52.588;13.406;2023-06-22T10:58:00;27.90;90.00
25963;DHT22;13760;52.588;13.406;2023-06-22T11:00:26;27.90;88.20
25963;DHT22;13760;52.588;13.406;2023-06-22T11:02:51;28.00;88.70
25963;DHT22;13760;52.588;13.406;2023-06-22T11:05:17;28.00;86.50
25963;DHT22;13760;52.588;13.406;2023-06-22T11:07:43;28.00;86.20
25963;DHT22;13760;52.588;13.406;2023-06-22T11:10:09;27.90;85.90
25963;DHT22;13760;52.588;13.406;2023-06-22T11:12:35;28.00;86.50
25963;DHT22;13760;52.588;13.406;2023-06-22T11:15:01;28.00;86.20
25963;DHT22;13760;52.588;13.406;2023-06-22T11:17:27;28.00;84.10
25963;DHT22;13760;52.588;13.406;2023-06-22T11:19:52;28.00;84.30
25963;DHT22;13760;52.588;13.406;2023-06-22T11:22:18;27.90;84.00
25963;DHT22;13760;52.588;13.406;2023-06-22T11:24:43;27.90;85.50
25963;DHT22;13760;52.588;13.406;2023-06-22T11:27:09;27.80;85.10
25963;DHT22;13760;52.588;13.406;2023-06-22T11:29:34;27.80;86.20
25963;DHT22;13760;52.588;13.406;2023-06-22T11:32:01;27.90;85.20
25963;DHT22;13760;52.588;13.406;2023-06-22T11:34:26;28.00;85.40
25963;DHT22;13760;52.588;13.406;2023-06-22T11:36:53;28.10;83.90
25963;DHT22;13760;52.588;13.406;2023-06-22T11:39:18;28.20;83.80
25963;DHT22;13760;52.588;13.406;2023-06-22T11:41:44;28.30;85.40
25963;DHT22;13760;52.588;13.406;2023-06-22T11:44:09;28.40;82.30
25963;DHT22;13760;52.588;13.406;2023-06-22T11:46:35;28.60;83.90
25963;DHT22;13760;52.588;13.406;2023-06-22T11:49:01;28.70;82.50
25963;DHT22;13760;52.588;13.406;2023-06-22T11:51:27;28.70;81.40
25963;DHT22;13760;52.588;13.406;2023-06-22T11:53:53;28.70;79.70
25963;DHT22;13760;52.588;13.406;2023-06-22T11:56:19;28.70;80.60
25963;DHT22;13760;52.588;13.406;2023-06-22T11:58:44;28.70;80.20
25963;DHT22;13760;52.588;13.406;2023-06-22T12:01:10;28.80;81.70
25963;DHT22;13760;52.588;13.406;2023-06-22T12:03:35;28.80;80.10
25963;DHT22;13760;52.588;13.406;2023-06-22T12:06:01;28.60;77.90
25963;DHT22;13760;52.588;13.406;2023-06-22T12:08:26;28.50;80.00
25963;DHT22;13760;52.588;13.406;2023-06-22T12:10:52;28.40;79.90
25963;DHT22;13760;52.588;13.406;2023-06-22T12:13:19;28.30;80.10
25963;DHT22;13760;52.588;13.406;2023-06-22T12:15:44;28.30;79.20
25963;DHT22;13760;52.588;13.406;2023-06-22T12:18:10;28.40;79.90
25963;DHT22;13760;52.588;13.406;2023-06-22T12:20:36;28.30;78.20
25963;DHT22;13760;52.588;13.406;2023-06-22T12:23:01;28.30;79.70
25963;DHT22;13760;52.588;13.406;2023-06-22T12:25:27;28.40;79.90
25963;DHT22;13760;52.588;13.406;2023-06-22T12:27:52;28.40;78.60
25963;DHT22;13760;52.588;13.406;2023-06-22T12:30:19;28.50;78.20
25963;DHT22;13760;52.588;13.406;2023-06-22T12:32:44;28.60;78.40
25963;DHT22;13760;52.588;13.406;2023-06-22T12:35:10;28.80;79.30
25963;DHT22;13760;52.588;13.406;2023-06-22T12:37:40;28.90;78.60
25963;DHT22;13760;52.588;13.406;2023-06-22T12:40:06;29.00;77.60
25963;DHT22;13760;52.588;13.406;2023-06-22T12:42:32;29.10;77.00
25963;DHT22;13760;52.588;13.406;2023-06-22T12:44:58;29.00;76.40
25963;DHT22;13760;52.588;13.406;2023-06-22T12:47:23;28.90;76.90
25963;DHT22;13760;52.588;13.406;2023-06-22T12:49:49;29.00;78.60
25963;DHT22;13760;52.588;13.406;2023-06-22T12:52:15;29.10;76.00
25963;DHT22;13760;52.588;13.406;2023-06-22T12:54:41;29.20;76.30
25963;DHT22;13760;52.588;13.406;2023-06-22T12:57:06;29.20;75.90
25963;DHT22;13760;52.588;13.406;2023-06-22T12:59:32;29.30;75.20
25963;DHT22;13760;52.588;13.406;2023-06-22T13:01:57;29.20;75.40
25963;DHT22;13760;52.588;13.406;2023-06-22T13:04:23;29.20;76.10
25963;DHT22;13760;52.588;13.406;2023-06-22T13:06:48;29.40;75.40
25963;DHT22;13760;52.588;13.406;2023-06-22T13:09:15;29.40;75.60
25963;DHT22;13760;52.588;13.406;2023-06-22T13:11:42;29.40;74.60
25963;DHT22;13760;52.588;13.406;2023-06-22T13:14:08;29.40;75.40
25963;DHT22;13760;52.588;13.406;2023-06-22T13:16:33;29.40;74.10
25963;DHT22;13760;52.588;13.406;2023-06-22T13:18:59;29.40;74.80
25963;DHT22;13760;52.588;13.406;2023-06-22T13:21:24;29.50;75.30
25963;DHT22;13760;52.588;13.406;2023-06-22T13:23:50;29.40;75.00
25963;DHT22;13760;52.588;13.406;2023-06-22T13:26:15;29.50;74.50
25963;DHT22;13760;52.588;13.406;2023-06-22T13:28:41;29.60;74.20
25963;DHT22;13760;52.588;13.406;2023-06-22T13:31:06;29.60;74.00
25963;DHT22;13760;52.588;13.406;2023-06-22T13:33:32;29.50;72.50
25963;DHT22;13760;52.588;13.406;2023-06-22T13:35:58;29.50;74.20
25963;DHT22;13760;52.588;13.406;2023-06-22T13:38:23;29.50;73.20
25963;DHT22;13760;52.588;13.406;2023-06-22T13:40:49;29.50;73.80
25963;DHT22;13760;52.588;13.406;2023-06-22T13:43:16;29.60;74.20
25963;DHT22;13760;52.588;13.406;2023-06-22T13:45:42;29.80;74.50
25963;DHT22;13760;52.588;13.406;2023-06-22T13:48:09;29.80;73.20
25963;DHT22;13760;52.588;13.406;2023-06-22T13:50:35;29.90;73.50
25963;DHT22;13760;52.588;13.406;2023-06-22T13:53:01;30.00;72.30
25963;DHT22;13760;52.588;13.406;2023-06-22T13:55:26;30.00;72.80
25963;DHT22;13760;52.588;13.406;2023-06-22T13:57:52;30.30;73.30
25963;DHT22;13760;52.588;13.406;2023-06-22T14:00:18;30.50;71.00
25963;DHT22;13760;52.588;13.406;2023-06-22T14:02:44;30.50;70.00
25963;DHT22;13760;52.588;13.406;2023-06-22T14:05:13;30.50;70.00
25963;DHT22;13760;52.588;13.406;2023-06-22T14:07:38;30.70;70.60
25963;DHT22;13760;52.588;13.406;2023-06-22T14:10:04;30.80;70.20
25963;DHT22;13760;52.588;13.406;2023-06-22T14:12:30;30.90;69.00
25963;DHT22;13760;52.588;13.406;2023-06-22T14:14:55;30.90;68.10
25963;DHT22;13760;52.588;13.406;2023-06-22T14:17:22;30.90;69.40
25963;DHT22;13760;52.588;13.406;2023-06-22T14:19:50;31.00;68.10
25963;DHT22;13760;52.588;13.406;2023-06-22T14:22:21;31.00;67.90
25963;DHT22;13760;52.588;13.406;2023-06-22T14:24:48;31.10;68.50
25963;DHT22;13760;52.588;13.406;2023-06-22T14:27:13;31.10;67.20
25963;DHT22;13760;52.588;13.406;2023-06-22T14:29:39;31.10;66.50
25963;DHT22;13760;52.588;13.406;2023-06-22T14:32:08;31.10;66.90
25963;DHT22;13760;52.588;13.406;2023-06-22T14:34:48;31.00;66.80
25963;DHT22;13760;52.588;13.406;2023-06-22T14:37:15;30.80;67.00
25963;DHT22;13760;52.588;13.406;2023-06-22T14:39:41;30.80;68.10
25963;DHT22;13760;52.588;13.406;2023-06-22T14:42:08;30.60;67.40
25963;DHT22;13760;52.588;13.406;2023-06-22T14:44:33;30.40;67.20
25963;DHT22;13760;52.588;13.406;2023-06-22T14:46:59;30.30;69.00
25963;DHT22;13760;52.588;13.406;2023-06-22T14:49:24;30.10;68.40
25963;DHT22;13760;52.588;13.406;2023-06-22T14:51:50;30.00;69.20
25963;DHT22;13760;52.588;13.406;2023-06-22T14:54:16;29.90;70.00
25963;DHT22;13760;52.588;13.406;2023-06-22T14:56:41;29.80;69.80
25963;DHT22;13760;52.588;13.406;2023-06-22T14:59:08;29.80;69.90
25963;DHT22;13760;52.588;13.406;2023-06-22T15:01:34;29.70;70.30
25963;DHT22;13760;52.588;13.406;2023-06-22T15:03:59;29.60;70.20
25963;DHT22;13760;52.588;13.406;2023-06-22T15:06:25;29.60;70.30
25963;DHT22;13760;52.588;13.406;2023-06-22T15:08:50;29.50;70.20
25963;DHT22;13760;52.588;13.406;2023-06-22T15:11:16;29.40;71.50
25963;DHT22;13760;52.588;13.406;2023-06-22T15:13:42;29.20;71.20
25963;DHT22;13760;52.588;13.406;2023-06-22T15:16:08;29.10;72.00